Accueil
METAR-TAF:

METAR-TAF

Aéroports :

Trévise, Italie

latitude: 45-41N, longitude: 012-06E, altitude: 45 m

Observation

Le bulletin a été fait il y a 1 heure et 8 minutes, à 20:55 UTC
Vent calme
Température 6°C
Humidité 93%
Pression 1020 hPa
Visibilité: 4000 m
Nuages épars à une hauteur de 3000 ft
brume

METAR: LIPS 242055Z 00000KT 4000 BR SCT030 06/05 Q1020 RMK SCT VIS MIN 4000 WIND THR26 00000KT WIND THR08 00000KT GRN

Heure: 23:03 (22:03 UTC)

Prévision

Le bulletin a été fait il y a 2 heures et 3 minutes, à 20:00 UTC
Prévision valable du 24 à 21 UTC au 25 à 06 UTC
Vent 3 kt de direction variable
Visibilité: 2000 m
Nuages épars à une hauteur de 2000 ft
Nuages fragmentés à une hauteur de 3000 ft
brume
Temporairement
du 24 à 21 UTC au 25 à 06 UTC
Visibilité: 0600 m
Nuages fragmentés à une hauteur de 300 ft
brouillard

TAF: LIPS 242000Z 2421/2506 VRB03KT 2000 BR SCT020 BKN030 TEMPO 2421/2506 0600 FG BKN003

Observations et prévisions météorologiques de plus de 4000 aéroports (messages METAR et TAF).

Les stations disponibles sont représentées par des disques jaunes et rouges sur la carte.

Passer la souris dessus pour voir le nom de la station.

Cliquer dessus pour voir les observations et prévisions météorologiques.

Pour changer de carte: cliquez sur les boutons verts avec une croix noire pour zoomer, sur le bouton vert avec un tiret pour effectuer un zoom arrière, ou sur les flèches vertes pour les cartes adjacentes.


METAR-TAF: